Beckley, WV

8:41 PM EST on December 09, 2016 (GMT -0500)
Raleigh County Memorial | | Change Station

Elev 2513 ft 37.79 °N, 81.12 °W | Updated 50 minutes ago

Overcast
Overcast
19 °F
Feels Like 6 °F
N
13
Wind Variable Wind from WNW

Today
High -- | Low -- °F
--% Chance of Precip.
Yesterday
High -- | Low -- °F
Precip. -- in
Pressure 30.55 in
Visibility 10.0 miles
Clouds Overcast 2500 ft
Windchill 6 °F
Dew Point 11 °F
Humidity 71%
Rainfall 0.00 in
Snow Depth Not available.
7:28 AM 5:05 PM
Waxing Gibbous, 79% visible
METAR KBKW 100051Z AUTO 29011KT 10SM OVC025 M07/M12 A3039 RMK AO2 SLP344 T10721117
Pressure 30.55 in
Visibility 10.0 miles
Clouds Overcast 2500 ft
Windchill 6 °F
Dew Point 11 °F
Humidity 71%
Rainfall 0.00 in
Snow Depth Not available.
7:28 AM 5:05 PM
Waxing Gibbous, 79% visible
METAR KBKW 100051Z AUTO 29011KT 10SM OVC025 M07/M12 A3039 RMK AO2 SLP344 T10721117

10-Day Weather Forecast

Almanac

Astronomy

Dec. 09, 2016 Rise Set
Actual Time
Civil Twilight
Nautical Twilight
Astronomical Twilight
Moon
Length of Visible Light
Length of Day
Tomorrow will be .
, % of the Moon is Illuminated

Today's Extremes

State Highs State Lows

Community

WunderPhotos

Upload Photos

1,956,534 photos uploaded!

WunderBlog® & News

Nearby

Air Quality

  Air Quality AQ Index Pollutant
Not available.

Snow Depth

Station Depth Elevation

Earthquake Activity

City Distance Mag. Time & Date
Minimum magnitude displayed is 2.5.

Coastal Water Temperatures

Place Temperature

Stations

Nearby Weather Stations

Station Location Temp. Windchill Dew Point Humidity Wind Precip. Elev Updated Type
                   

Watches & Warnings

There are currently no watches in effect.